createdAt,value
2019-03-18T00:02:15.026Z,9.10
2019-03-18T00:07:18.505Z,9.03
2019-03-18T00:12:22.389Z,8.88
2019-03-18T00:17:26.697Z,8.73
2019-03-18T00:22:30.421Z,8.72
2019-03-18T00:27:34.297Z,8.68
2019-03-18T00:32:37.898Z,8.63
2019-03-18T00:37:41.834Z,8.56
2019-03-18T00:42:44.848Z,8.53
2019-03-18T00:47:48.081Z,8.59
2019-03-18T00:52:51.600Z,8.53
2019-03-18T00:57:55.128Z,8.54
2019-03-18T01:02:58.637Z,8.53
2019-03-18T01:08:02.150Z,8.49
2019-03-18T01:13:05.543Z,8.34
2019-03-18T01:18:08.827Z,7.83
2019-03-18T01:23:11.955Z,7.54
2019-03-18T01:28:15.066Z,7.49
2019-03-18T01:33:18.446Z,7.46
2019-03-18T01:38:21.677Z,7.26
2019-03-18T01:43:25.161Z,7.13
2019-03-18T01:48:28.387Z,6.97
2019-03-18T01:53:31.348Z,6.68
2019-03-18T01:58:34.675Z,6.49
2019-03-18T02:03:37.885Z,6.16
2019-03-18T02:08:40.999Z,6.13
2019-03-18T02:13:44.265Z,6.05
2019-03-18T02:18:47.230Z,6.05
2019-03-18T02:23:50.327Z,5.78
2019-03-18T02:28:53.693Z,5.81
2019-03-18T02:33:56.842Z,5.72
2019-03-18T02:39:00.155Z,5.87
2019-03-18T02:44:03.130Z,5.73
2019-03-18T02:49:06.533Z,5.61
2019-03-18T02:54:09.533Z,5.51
2019-03-18T02:59:12.613Z,5.45
2019-03-18T03:04:15.899Z,5.24
2019-03-18T03:09:18.994Z,5.09
2019-03-18T03:14:21.986Z,5.15
2019-03-18T03:19:25.203Z,5.07
2019-03-18T03:24:28.243Z,4.97
2019-03-18T03:29:31.431Z,5.00
2019-03-18T03:34:34.758Z,5.00
2019-03-18T03:39:37.860Z,4.85
2019-03-18T03:44:40.900Z,4.90
2019-03-18T03:49:44.184Z,4.90
2019-03-18T03:54:47.614Z,4.91
2019-03-18T03:59:50.590Z,4.77
2019-03-18T04:04:54.128Z,4.73
2019-03-18T04:09:57.323Z,4.90
2019-03-18T04:15:00.598Z,4.75
2019-03-18T04:20:04.667Z,4.83
2019-03-18T04:25:08.509Z,4.78
2019-03-18T04:30:11.809Z,4.96
2019-03-18T04:35:14.918Z,4.92
2019-03-18T04:40:18.010Z,4.82
2019-03-18T04:45:21.078Z,5.04
2019-03-18T04:50:24.069Z,5.05
2019-03-18T04:55:27.142Z,5.22
2019-03-18T05:00:30.240Z,5.36
2019-03-18T05:05:33.495Z,5.20
2019-03-18T05:10:36.450Z,5.28
2019-03-18T05:15:39.593Z,5.12
2019-03-18T05:20:42.674Z,5.08
2019-03-18T05:25:45.691Z,4.97
2019-03-18T05:30:48.650Z,5.01
2019-03-18T05:35:51.806Z,5.07
2019-03-18T05:40:54.912Z,5.24
2019-03-18T05:45:58.036Z,5.30
2019-03-18T05:51:00.964Z,5.51
2019-03-18T05:56:04.140Z,5.40
2019-03-18T06:01:07.344Z,5.33
2019-03-18T06:06:10.561Z,5.36
2019-03-18T06:11:13.709Z,5.09
2019-03-18T06:16:16.943Z,5.08
2019-03-18T06:21:20.322Z,5.18
2019-03-18T06:26:23.393Z,5.20
2019-03-18T06:31:26.510Z,5.31
2019-03-18T06:36:29.490Z,5.37
2019-03-18T06:41:32.633Z,5.41
2019-03-18T06:46:35.717Z,5.54
2019-03-18T06:51:39.163Z,5.48
2019-03-18T06:56:42.527Z,5.57
2019-03-18T07:01:45.665Z,5.69
2019-03-18T07:06:48.892Z,5.67
2019-03-18T07:11:51.878Z,5.65
2019-03-18T07:16:54.877Z,5.77
2019-03-18T07:21:58.096Z,5.90
2019-03-18T07:27:01.506Z,5.88
2019-03-18T07:32:04.773Z,6.03
2019-03-18T07:37:07.837Z,6.26
2019-03-18T07:42:10.990Z,6.44
2019-03-18T07:47:14.095Z,6.43
2019-03-18T07:52:17.280Z,6.77
2019-03-18T07:57:20.717Z,6.62
2019-03-18T08:02:23.764Z,6.75
2019-03-18T08:07:27.041Z,6.68
2019-03-18T08:12:30.128Z,6.49
2019-03-18T08:17:33.487Z,6.61
2019-03-18T08:22:36.933Z,6.62
2019-03-18T08:27:40.240Z,7.01
2019-03-18T08:32:43.701Z,7.14
2019-03-18T08:37:46.764Z,6.87
2019-03-18T08:42:49.957Z,6.94
2019-03-18T08:47:53.189Z,7.20
2019-03-18T08:52:56.561Z,7.30
2019-03-18T08:57:59.703Z,6.96
2019-03-18T09:03:02.942Z,7.04
2019-03-18T09:08:06.096Z,6.98
2019-03-18T09:13:09.183Z,7.04
2019-03-18T09:18:12.351Z,7.13
2019-03-18T09:23:15.464Z,7.29
2019-03-18T09:28:18.743Z,7.17
2019-03-18T09:33:21.982Z,7.03
2019-03-18T09:38:25.016Z,7.35
2019-03-18T09:43:28.498Z,7.09
2019-03-18T09:48:31.711Z,7.23
2019-03-18T09:53:37.571Z,7.25
2019-03-18T09:58:39.888Z,7.41
2019-03-18T10:03:42.946Z,7.91
2019-03-18T10:08:46.040Z,7.44
2019-03-18T10:13:49.286Z,7.50
2019-03-18T10:18:52.410Z,7.36
2019-03-18T10:23:55.526Z,7.33
2019-03-18T10:28:58.734Z,7.25
2019-03-18T10:34:01.820Z,7.54
2019-03-18T10:39:07.307Z,7.92
2019-03-18T10:44:10.488Z,8.73
2019-03-18T10:49:13.711Z,8.34
2019-03-18T10:54:17.111Z,8.37
2019-03-18T10:59:20.656Z,7.97
2019-03-18T11:04:23.772Z,7.92
2019-03-18T11:09:26.785Z,8.12
2019-03-18T11:14:29.754Z,7.83
2019-03-18T11:19:32.818Z,8.12
2019-03-18T11:24:35.886Z,8.44
2019-03-18T11:29:38.969Z,8.11
2019-03-18T11:34:41.993Z,8.08
2019-03-18T11:39:45.306Z,8.06
2019-03-18T11:44:48.478Z,8.01
2019-03-18T11:49:51.791Z,7.88
2019-03-18T11:54:54.891Z,8.03
2019-03-18T11:59:58.168Z,7.88
2019-03-18T12:05:01.279Z,7.87
2019-03-18T12:10:05.734Z,7.78
2019-03-18T12:15:10.278Z,7.61
2019-03-18T12:20:23.686Z,7.78
2019-03-18T12:25:18.719Z,8.15
2019-03-18T12:30:22.088Z,8.97
2019-03-18T12:35:25.576Z,9.11
2019-03-18T12:40:28.746Z,9.20
2019-03-18T12:45:32.276Z,8.64
2019-03-18T12:50:53.982Z,8.95
2019-03-18T12:55:40.378Z,8.83
2019-03-18T13:00:43.559Z,8.95
2019-03-18T13:05:46.676Z,9.02
2019-03-18T13:10:49.829Z,9.51
2019-03-18T13:15:52.977Z,9.27
2019-03-18T13:21:07.362Z,9.01
2019-03-18T13:26:01.392Z,8.95
2019-03-18T13:31:04.536Z,9.26
2019-03-18T13:36:07.579Z,9.27
2019-03-18T13:41:10.851Z,9.61
2019-03-18T13:46:14.081Z,9.80
2019-03-18T13:51:21.241Z,9.70
2019-03-18T13:56:22.168Z,9.98
2019-03-18T14:01:25.262Z,9.77
2019-03-18T14:06:28.473Z,9.52
2019-03-18T14:11:31.544Z,9.76
2019-03-18T14:16:35.011Z,9.98
2019-03-18T14:21:38.133Z,9.57
2019-03-18T14:26:41.086Z,9.55
2019-03-18T14:31:44.059Z,9.68
2019-03-18T14:36:47.064Z,9.48
2019-03-18T14:41:50.211Z,9.58
2019-03-18T14:46:53.434Z,9.76
2019-03-18T14:51:56.619Z,9.83
2019-03-18T14:56:59.887Z,9.35
2019-03-18T15:02:02.870Z,9.68
2019-03-18T15:07:06.063Z,9.40
2019-03-18T15:12:09.148Z,9.32
2019-03-18T15:17:12.287Z,9.11
2019-03-18T15:22:15.331Z,9.11
2019-03-18T15:27:18.423Z,9.08
2019-03-18T15:32:21.373Z,9.18
2019-03-18T15:37:24.637Z,8.96
2019-03-18T15:42:27.617Z,8.96
2019-03-18T15:47:30.936Z,9.02
2019-03-18T15:52:33.997Z,9.03
2019-03-18T15:57:37.240Z,8.90
2019-03-18T16:02:40.246Z,8.86
2019-03-18T16:07:43.417Z,8.86
2019-03-18T16:12:46.864Z,8.77
2019-03-18T16:17:49.955Z,8.64
2019-03-18T16:22:53.195Z,8.60
2019-03-18T16:27:56.288Z,8.58
2019-03-18T16:32:59.683Z,8.53
2019-03-18T16:38:02.961Z,8.45
2019-03-18T16:43:05.965Z,8.35
2019-03-18T16:48:09.070Z,8.31
2019-03-18T16:53:12.059Z,8.22
2019-03-18T16:58:15.334Z,8.18
2019-03-18T17:03:18.253Z,7.94
2019-03-18T17:08:21.382Z,7.73
2019-03-18T17:13:24.777Z,7.75
2019-03-18T17:18:27.741Z,7.73
2019-03-18T17:23:30.903Z,7.77
2019-03-18T17:28:34.446Z,7.77
2019-03-18T17:33:37.619Z,7.71
2019-03-18T17:38:40.900Z,7.45
2019-03-18T17:43:44.232Z,7.47
2019-03-18T17:48:47.358Z,7.35
2019-03-18T17:53:50.684Z,7.33
2019-03-18T17:58:53.987Z,7.46
2019-03-18T18:03:57.277Z,7.31
2019-03-18T18:09:00.506Z,7.35
2019-03-18T18:14:03.624Z,7.27
2019-03-18T18:19:06.890Z,7.30
2019-03-18T18:24:09.962Z,7.32
2019-03-18T18:29:12.974Z,7.31
2019-03-18T18:34:15.987Z,7.15
2019-03-18T18:39:19.476Z,6.97
2019-03-18T18:44:22.970Z,6.84
2019-03-18T18:49:26.046Z,6.79
2019-03-18T18:54:29.312Z,6.69
2019-03-18T18:59:32.507Z,6.57
2019-03-18T19:04:35.846Z,6.51
2019-03-18T19:09:39.420Z,6.35
2019-03-18T19:14:42.488Z,6.26
2019-03-18T19:19:45.727Z,6.32
2019-03-18T19:24:48.784Z,6.10
2019-03-18T19:29:51.847Z,6.06
2019-03-18T19:34:54.916Z,6.16
2019-03-18T19:39:58.210Z,6.35
2019-03-18T19:45:01.451Z,6.14
2019-03-18T19:50:06.841Z,6.09
2019-03-18T19:55:10.315Z,5.56
2019-03-18T20:00:16.460Z,5.35
2019-03-18T20:05:20.095Z,5.18
2019-03-18T20:10:23.502Z,5.38
2019-03-18T20:15:26.663Z,5.54
2019-03-18T20:20:29.825Z,5.38
2019-03-18T20:25:32.976Z,5.37
2019-03-18T20:30:36.055Z,5.43
2019-03-18T20:35:39.250Z,5.49
2019-03-18T20:40:42.339Z,5.41
2019-03-18T20:45:45.548Z,5.49
2019-03-18T20:50:49.079Z,5.48
2019-03-18T20:55:52.247Z,5.38
2019-03-18T21:00:55.809Z,5.27
2019-03-18T21:05:58.947Z,5.25
2019-03-18T21:11:02.022Z,5.10
2019-03-18T21:16:05.108Z,4.96
2019-03-18T21:21:08.335Z,4.99
2019-03-18T21:26:11.545Z,4.92
2019-03-18T21:31:14.941Z,5.04
2019-03-18T21:36:32.802Z,4.99
2019-03-18T21:41:23.022Z,4.92
2019-03-18T21:46:27.675Z,4.66
2019-03-18T21:51:30.983Z,4.55
2019-03-18T21:56:34.210Z,4.35
2019-03-18T22:01:37.502Z,4.34
2019-03-18T22:06:40.604Z,4.24
2019-03-18T22:11:43.978Z,3.69
2019-03-18T22:16:47.086Z,3.51
2019-03-18T22:21:50.158Z,3.44
2019-03-18T22:26:53.194Z,3.64
2019-03-18T22:31:56.557Z,3.35
2019-03-18T22:36:59.844Z,3.34
2019-03-18T22:42:02.807Z,2.81
2019-03-18T22:47:06.106Z,2.90
2019-03-18T22:52:11.165Z,3.30
2019-03-18T22:57:13.977Z,3.05
2019-03-18T23:02:17.080Z,3.15
2019-03-18T23:07:20.126Z,3.04
2019-03-18T23:12:23.081Z,2.82
2019-03-18T23:17:26.176Z,3.00
2019-03-18T23:22:29.264Z,3.06
2019-03-18T23:27:32.701Z,3.07
2019-03-18T23:32:36.361Z,3.17
2019-03-18T23:37:39.328Z,3.13
2019-03-18T23:42:42.886Z,3.14
2019-03-18T23:47:46.163Z,3.04
2019-03-18T23:52:49.108Z,3.02
2019-03-18T23:57:54.236Z,2.87
